sensor_id;sensor_type;location;lat;lon;timestamp;temperature;humidity
42147;DHT22;27815;43.410;11.852;2023-07-22T00:02:01;25.40;55.40
42147;DHT22;27815;43.410;11.852;2023-07-22T00:06:08;25.40;55.40
42147;DHT22;27815;43.410;11.852;2023-07-22T00:10:12;25.40;55.40
42147;DHT22;27815;43.410;11.852;2023-07-22T00:14:15;25.30;55.40
42147;DHT22;27815;43.410;11.852;2023-07-22T00:18:18;25.30;55.30
42147;DHT22;27815;43.410;11.852;2023-07-22T00:22:21;25.30;55.30
42147;DHT22;27815;43.410;11.852;2023-07-22T00:26:24;25.20;55.20
42147;DHT22;27815;43.410;11.852;2023-07-22T00:30:28;25.30;55.20
42147;DHT22;27815;43.410;11.852;2023-07-22T00:34:31;25.20;55.10
42147;DHT22;27815;43.410;11.852;2023-07-22T00:38:34;25.10;55.30
42147;DHT22;27815;43.410;11.852;2023-07-22T00:42:38;25.10;55.20
42147;DHT22;27815;43.410;11.852;2023-07-22T00:46:41;25.00;55.20
42147;DHT22;27815;43.410;11.852;2023-07-22T00:50:44;25.00;55.20
42147;DHT22;27815;43.410;11.852;2023-07-22T00:54:47;25.10;55.20
42147;DHT22;27815;43.410;11.852;2023-07-22T00:58:52;25.10;55.20
42147;DHT22;27815;43.410;11.852;2023-07-22T01:02:55;25.00;55.30
42147;DHT22;27815;43.410;11.852;2023-07-22T01:06:59;25.00;55.40
42147;DHT22;27815;43.410;11.852;2023-07-22T01:11:02;25.00;55.40
42147;DHT22;27815;43.410;11.852;2023-07-22T01:15:06;24.80;55.60
42147;DHT22;27815;43.410;11.852;2023-07-22T01:19:11;24.70;56.00
42147;DHT22;27815;43.410;11.852;2023-07-22T01:23:16;24.50;56.10
42147;DHT22;27815;43.410;11.852;2023-07-22T01:27:20;24.50;56.20
42147;DHT22;27815;43.410;11.852;2023-07-22T01:31:23;24.40;56.40
42147;DHT22;27815;43.410;11.852;2023-07-22T01:35:26;24.30;56.50
42147;DHT22;27815;43.410;11.852;2023-07-22T01:39:29;24.20;56.60
42147;DHT22;27815;43.410;11.852;2023-07-22T01:43:32;24.20;56.70
42147;DHT22;27815;43.410;11.852;2023-07-22T01:47:36;24.20;56.70
42147;DHT22;27815;43.410;11.852;2023-07-22T01:51:39;24.20;56.80
42147;DHT22;27815;43.410;11.852;2023-07-22T01:55:45;24.10;56.80
42147;DHT22;27815;43.410;11.852;2023-07-22T01:59:48;24.00;56.90
42147;DHT22;27815;43.410;11.852;2023-07-22T02:03:51;24.00;57.00
42147;DHT22;27815;43.410;11.852;2023-07-22T02:07:54;23.90;57.10
42147;DHT22;27815;43.410;11.852;2023-07-22T02:11:58;23.90;57.50
42147;DHT22;27815;43.410;11.852;2023-07-22T02:16:01;23.80;57.70
42147;DHT22;27815;43.410;11.852;2023-07-22T02:20:05;23.80;57.90
42147;DHT22;27815;43.410;11.852;2023-07-22T02:24:09;23.80;58.10
42147;DHT22;27815;43.410;11.852;2023-07-22T02:28:12;23.70;58.30
42147;DHT22;27815;43.410;11.852;2023-07-22T02:32:15;23.70;58.50
42147;DHT22;27815;43.410;11.852;2023-07-22T02:36:18;23.70;58.70
42147;DHT22;27815;43.410;11.852;2023-07-22T02:40:21;23.70;58.70
42147;DHT22;27815;43.410;11.852;2023-07-22T02:44:24;23.70;58.70
42147;DHT22;27815;43.410;11.852;2023-07-22T02:48:27;23.70;58.70
42147;DHT22;27815;43.410;11.852;2023-07-22T02:52:30;23.70;58.70
42147;DHT22;27815;43.410;11.852;2023-07-22T02:56:33;23.60;59.00
42147;DHT22;27815;43.410;11.852;2023-07-22T03:00:37;23.50;59.10
42147;DHT22;27815;43.410;11.852;2023-07-22T03:04:40;23.50;59.10
42147;DHT22;27815;43.410;11.852;2023-07-22T03:08:44;23.40;59.50
42147;DHT22;27815;43.410;11.852;2023-07-22T03:12:48;23.20;59.70
42147;DHT22;27815;43.410;11.852;2023-07-22T03:16:52;23.20;59.70
42147;DHT22;27815;43.410;11.852;2023-07-22T03:20:57;23.10;59.70
42147;DHT22;27815;43.410;11.852;2023-07-22T03:25:00;23.10;59.80
42147;DHT22;27815;43.410;11.852;2023-07-22T03:29:03;23.00;59.90
42147;DHT22;27815;43.410;11.852;2023-07-22T03:33:08;22.90;60.10
42147;DHT22;27815;43.410;11.852;2023-07-22T03:37:11;22.90;60.20
42147;DHT22;27815;43.410;11.852;2023-07-22T03:41:14;22.90;60.20
42147;DHT22;27815;43.410;11.852;2023-07-22T03:45:18;22.90;60.30
42147;DHT22;27815;43.410;11.852;2023-07-22T03:49:21;22.80;60.40
42147;DHT22;27815;43.410;11.852;2023-07-22T03:53:24;22.80;60.40
42147;DHT22;27815;43.410;11.852;2023-07-22T03:57:28;22.80;60.50
42147;DHT22;27815;43.410;11.852;2023-07-22T04:01:31;22.70;60.70
42147;DHT22;27815;43.410;11.852;2023-07-22T04:05:34;22.60;60.90
42147;DHT22;27815;43.410;11.852;2023-07-22T04:09:37;22.50;61.00
42147;DHT22;27815;43.410;11.852;2023-07-22T04:13:41;22.40;61.20
42147;DHT22;27815;43.410;11.852;2023-07-22T04:17:44;22.40;61.20
42147;DHT22;27815;43.410;11.852;2023-07-22T04:21:47;22.40;61.40
42147;DHT22;27815;43.410;11.852;2023-07-22T04:25:50;22.40;61.50
42147;DHT22;27815;43.410;11.852;2023-07-22T04:29:53;22.40;61.60
42147;DHT22;27815;43.410;11.852;2023-07-22T04:33:57;22.40;61.70
42147;DHT22;27815;43.410;11.852;2023-07-22T04:38:00;22.50;61.70
42147;DHT22;27815;43.410;11.852;2023-07-22T04:42:03;22.50;61.70
42147;DHT22;27815;43.410;11.852;2023-07-22T04:46:07;22.50;61.80
42147;DHT22;27815;43.410;11.852;2023-07-22T04:50:11;22.50;61.90
42147;DHT22;27815;43.410;11.852;2023-07-22T04:54:14;22.50;62.10
42147;DHT22;27815;43.410;11.852;2023-07-22T04:58:17;22.50;62.20
42147;DHT22;27815;43.410;11.852;2023-07-22T05:02:23;22.50;62.50
42147;DHT22;27815;43.410;11.852;2023-07-22T05:06:26;22.50;62.40
42147;DHT22;27815;43.410;11.852;2023-07-22T05:10:29;22.60;62.50
42147;DHT22;27815;43.410;11.852;2023-07-22T05:14:32;22.60;62.70
42147;DHT22;27815;43.410;11.852;2023-07-22T05:18:35;22.60;63.00
42147;DHT22;27815;43.410;11.852;2023-07-22T05:22:39;22.70;63.10
42147;DHT22;27815;43.410;11.852;2023-07-22T05:26:43;22.80;63.10
42147;DHT22;27815;43.410;11.852;2023-07-22T05:31:00;22.90;63.30
42147;DHT22;27815;43.410;11.852;2023-07-22T05:35:04;22.90;63.40
42147;DHT22;27815;43.410;11.852;2023-07-22T05:39:08;23.10;63.30
42147;DHT22;27815;43.410;11.852;2023-07-22T05:43:11;23.30;63.10
42147;DHT22;27815;43.410;11.852;2023-07-22T05:47:14;23.50;62.80
42147;DHT22;27815;43.410;11.852;2023-07-22T05:51:20;23.80;62.50
42147;DHT22;27815;43.410;11.852;2023-07-22T05:55:23;24.00;62.00
42147;DHT22;27815;43.410;11.852;2023-07-22T05:59:26;24.00;62.10
42147;DHT22;27815;43.410;11.852;2023-07-22T06:03:29;24.30;62.00
42147;DHT22;27815;43.410;11.852;2023-07-22T06:07:32;24.50;61.70
42147;DHT22;27815;43.410;11.852;2023-07-22T06:11:35;24.90;61.40
42147;DHT22;27815;43.410;11.852;2023-07-22T06:15:38;25.00;61.10
42147;DHT22;27815;43.410;11.852;2023-07-22T06:19:41;25.10;61.10
42147;DHT22;27815;43.410;11.852;2023-07-22T06:23:45;25.30;61.00
42147;DHT22;27815;43.410;11.852;2023-07-22T06:27:48;25.50;60.90
42147;DHT22;27815;43.410;11.852;2023-07-22T06:31:51;25.70;60.70
42147;DHT22;27815;43.410;11.852;2023-07-22T06:35:55;26.00;60.30
42147;DHT22;27815;43.410;11.852;2023-07-22T06:39:58;26.30;60.00
42147;DHT22;27815;43.410;11.852;2023-07-22T06:44:01;26.60;59.60
42147;DHT22;27815;43.410;11.852;2023-07-22T06:48:05;26.90;59.30
42147;DHT22;27815;43.410;11.852;2023-07-22T06:52:08;27.10;58.90
42147;DHT22;27815;43.410;11.852;2023-07-22T06:56:11;27.50;58.30
42147;DHT22;27815;43.410;11.852;2023-07-22T07:00:14;27.50;57.80
42147;DHT22;27815;43.410;11.852;2023-07-22T07:04:17;27.60;57.70
42147;DHT22;27815;43.410;11.852;2023-07-22T07:08:21;27.90;57.50
42147;DHT22;27815;43.410;11.852;2023-07-22T07:12:24;28.10;57.10
42147;DHT22;27815;43.410;11.852;2023-07-22T07:16:29;28.30;56.60
42147;DHT22;27815;43.410;11.852;2023-07-22T07:20:34;28.40;56.30
42147;DHT22;27815;43.410;11.852;2023-07-22T07:24:37;28.60;55.60
42147;DHT22;27815;43.410;11.852;2023-07-22T07:28:41;28.80;55.40
42147;DHT22;27815;43.410;11.852;2023-07-22T07:32:44;29.00;55.00
42147;DHT22;27815;43.410;11.852;2023-07-22T07:36:54;29.20;54.70
42147;DHT22;27815;43.410;11.852;2023-07-22T07:40:59;29.70;53.80
42147;DHT22;27815;43.410;11.852;2023-07-22T07:45:03;29.90;53.60
42147;DHT22;27815;43.410;11.852;2023-07-22T07:49:07;30.00;53.10
42147;DHT22;27815;43.410;11.852;2023-07-22T07:53:10;30.00;53.00
42147;DHT22;27815;43.410;11.852;2023-07-22T07:57:13;30.20;52.60
42147;DHT22;27815;43.410;11.852;2023-07-22T08:01:17;30.30;51.00
42147;DHT22;27815;43.410;11.852;2023-07-22T08:05:22;30.30;51.00
42147;DHT22;27815;43.410;11.852;2023-07-22T08:09:26;30.50;50.80
42147;DHT22;27815;43.410;11.852;2023-07-22T08:13:29;30.70;50.50
42147;DHT22;27815;43.410;11.852;2023-07-22T08:17:35;30.80;49.90
42147;DHT22;27815;43.410;11.852;2023-07-22T08:21:38;30.90;49.40
42147;DHT22;27815;43.410;11.852;2023-07-22T08:25:43;30.90;49.80
42147;DHT22;27815;43.410;11.852;2023-07-22T08:29:46;31.10;49.70
42147;DHT22;27815;43.410;11.852;2023-07-22T08:33:49;31.10;49.80
42147;DHT22;27815;43.410;11.852;2023-07-22T08:37:52;31.20;49.70
42147;DHT22;27815;43.410;11.852;2023-07-22T08:41:56;31.20;49.50
42147;DHT22;27815;43.410;11.852;2023-07-22T08:46:06;31.30;49.50
42147;DHT22;27815;43.410;11.852;2023-07-22T08:50:10;31.50;49.10
42147;DHT22;27815;43.410;11.852;2023-07-22T08:54:14;31.70;49.00
42147;DHT22;27815;43.410;11.852;2023-07-22T08:58:17;31.80;48.50
42147;DHT22;27815;43.410;11.852;2023-07-22T09:02:21;32.00;47.80
42147;DHT22;27815;43.410;11.852;2023-07-22T09:06:24;31.90;47.50
42147;DHT22;27815;43.410;11.852;2023-07-22T09:10:28;31.90;47.00
42147;DHT22;27815;43.410;11.852;2023-07-22T09:14:33;31.90;45.50
42147;DHT22;27815;43.410;11.852;2023-07-22T09:18:38;32.00;44.90
42147;DHT22;27815;43.410;11.852;2023-07-22T09:22:46;32.30;44.60
42147;DHT22;27815;43.410;11.852;2023-07-22T09:26:58;32.30;44.30
42147;DHT22;27815;43.410;11.852;2023-07-22T09:31:02;32.40;44.40
42147;DHT22;27815;43.410;11.852;2023-07-22T09:35:06;32.40;43.80
42147;DHT22;27815;43.410;11.852;2023-07-22T09:39:14;32.50;43.40
42147;DHT22;27815;43.410;11.852;2023-07-22T09:43:17;32.70;43.20
42147;DHT22;27815;43.410;11.852;2023-07-22T09:47:20;32.80;43.20
42147;DHT22;27815;43.410;11.852;2023-07-22T09:51:23;32.90;42.90
42147;DHT22;27815;43.410;11.852;2023-07-22T09:55:27;32.80;42.60
42147;DHT22;27815;43.410;11.852;2023-07-22T09:59:31;32.80;42.80
42147;DHT22;27815;43.410;11.852;2023-07-22T10:03:37;33.00;41.70
42147;DHT22;27815;43.410;11.852;2023-07-22T10:07:47;33.10;41.40
42147;DHT22;27815;43.410;11.852;2023-07-22T10:11:53;33.00;40.80
42147;DHT22;27815;43.410;11.852;2023-07-22T10:15:56;32.90;41.20
42147;DHT22;27815;43.410;11.852;2023-07-22T10:20:00;33.00;40.90
42147;DHT22;27815;43.410;11.852;2023-07-22T10:24:03;33.00;40.80
42147;DHT22;27815;43.410;11.852;2023-07-22T10:28:11;33.10;40.90
42147;DHT22;27815;43.410;11.852;2023-07-22T10:32:14;33.30;40.60
42147;DHT22;27815;43.410;11.852;2023-07-22T10:36:19;33.40;40.40
42147;DHT22;27815;43.410;11.852;2023-07-22T10:40:28;33.60;39.90
42147;DHT22;27815;43.410;11.852;2023-07-22T10:44:35;33.60;39.40
42147;DHT22;27815;43.410;11.852;2023-07-22T10:48:40;33.60;39.30
42147;DHT22;27815;43.410;11.852;2023-07-22T10:52:44;33.60;39.50
42147;DHT22;27815;43.410;11.852;2023-07-22T10:56:47;33.60;39.00
42147;DHT22;27815;43.410;11.852;2023-07-22T11:00:53;33.50;38.70
42147;DHT22;27815;43.410;11.852;2023-07-22T11:04:57;33.40;38.80
42147;DHT22;27815;43.410;11.852;2023-07-22T11:09:02;33.70;38.70
42147;DHT22;27815;43.410;11.852;2023-07-22T11:13:13;33.70;38.70
42147;DHT22;27815;43.410;11.852;2023-07-22T11:17:29;34.00;38.00
42147;DHT22;27815;43.410;11.852;2023-07-22T11:21:34;34.10;37.30
42147;DHT22;27815;43.410;11.852;2023-07-22T11:25:41;34.10;36.90
42147;DHT22;27815;43.410;11.852;2023-07-22T11:29:44;34.00;36.90
42147;DHT22;27815;43.410;11.852;2023-07-22T11:33:47;34.10;36.90
42147;DHT22;27815;43.410;11.852;2023-07-22T11:38:00;34.10;36.50
42147;DHT22;27815;43.410;11.852;2023-07-22T11:42:04;34.20;36.70
42147;DHT22;27815;43.410;11.852;2023-07-22T11:46:08;34.20;37.10
42147;DHT22;27815;43.410;11.852;2023-07-22T11:50:11;34.40;37.10
42147;DHT22;27815;43.410;11.852;2023-07-22T11:54:14;34.30;37.00
42147;DHT22;27815;43.410;11.852;2023-07-22T11:58:29;34.40;37.20
42147;DHT22;27815;43.410;11.852;2023-07-22T12:02:35;34.50;37.30
42147;DHT22;27815;43.410;11.852;2023-07-22T12:06:43;34.70;37.00
42147;DHT22;27815;43.410;11.852;2023-07-22T12:10:59;34.80;37.10
42147;DHT22;27815;43.410;11.852;2023-07-22T12:19:13;35.00;36.50
42147;DHT22;27815;43.410;11.852;2023-07-22T12:23:17;34.80;36.70
42147;DHT22;27815;43.410;11.852;2023-07-22T12:27:21;34.80;36.70
42147;DHT22;27815;43.410;11.852;2023-07-22T12:31:24;34.80;36.70
42147;DHT22;27815;43.410;11.852;2023-07-22T12:35:27;34.90;36.60
42147;DHT22;27815;43.410;11.852;2023-07-22T12:39:30;35.00;36.60
42147;DHT22;27815;43.410;11.852;2023-07-22T12:43:33;35.20;36.40
42147;DHT22;27815;43.410;11.852;2023-07-22T12:47:36;35.20;36.20
42147;DHT22;27815;43.410;11.852;2023-07-22T12:51:40;35.40;36.00
42147;DHT22;27815;43.410;11.852;2023-07-22T12:55:43;35.40;35.50
42147;DHT22;27815;43.410;11.852;2023-07-22T12:59:46;35.40;35.20
42147;DHT22;27815;43.410;11.852;2023-07-22T13:03:50;35.50;34.70
42147;DHT22;27815;43.410;11.852;2023-07-22T13:07:53;35.40;34.70
42147;DHT22;27815;43.410;11.852;2023-07-22T13:11:57;35.40;34.30
42147;DHT22;27815;43.410;11.852;2023-07-22T13:16:00;35.70;33.80
42147;DHT22;27815;43.410;11.852;2023-07-22T13:20:04;35.70;33.30
42147;DHT22;27815;43.410;11.852;2023-07-22T13:24:09;35.70;33.40
42147;DHT22;27815;43.410;11.852;2023-07-22T13:28:12;35.80;32.60
42147;DHT22;27815;43.410;11.852;2023-07-22T13:32:15;35.70;32.40
42147;DHT22;27815;43.410;11.852;2023-07-22T13:36:18;35.50;32.40
42147;DHT22;27815;43.410;11.852;2023-07-22T13:40:21;35.70;32.40
42147;DHT22;27815;43.410;11.852;2023-07-22T13:44:24;35.80;32.20
42147;DHT22;27815;43.410;11.852;2023-07-22T13:48:27;36.00;31.60
42147;DHT22;27815;43.410;11.852;2023-07-22T13:52:30;36.00;31.40
42147;DHT22;27815;43.410;11.852;2023-07-22T13:56:33;35.80;31.10
42147;DHT22;27815;43.410;11.852;2023-07-22T14:00:36;35.80;30.90
42147;DHT22;27815;43.410;11.852;2023-07-22T14:04:39;35.90;30.70
42147;DHT22;27815;43.410;11.852;2023-07-22T14:08:42;36.00;29.60
42147;DHT22;27815;43.410;11.852;2023-07-22T14:12:45;36.00;29.20
42147;DHT22;27815;43.410;11.852;2023-07-22T14:16:49;36.20;29.30
42147;DHT22;27815;43.410;11.852;2023-07-22T14:20:52;36.10;28.50
42147;DHT22;27815;43.410;11.852;2023-07-22T14:24:55;36.10;28.40
42147;DHT22;27815;43.410;11.852;2023-07-22T14:28:58;36.10;28.50
42147;DHT22;27815;43.410;11.852;2023-07-22T14:33:01;36.20;27.60
42147;DHT22;27815;43.410;11.852;2023-07-22T14:37:04;36.10;27.60
42147;DHT22;27815;43.410;11.852;2023-07-22T14:41:08;36.10;27.40
42147;DHT22;27815;43.410;11.852;2023-07-22T14:45:11;36.00;27.10
42147;DHT22;27815;43.410;11.852;2023-07-22T14:49:14;36.00;27.30
42147;DHT22;27815;43.410;11.852;2023-07-22T14:53:17;36.10;27.30
42147;DHT22;27815;43.410;11.852;2023-07-22T14:57:19;36.10;27.20
42147;DHT22;27815;43.410;11.852;2023-07-22T15:01:22;36.00;27.10
42147;DHT22;27815;43.410;11.852;2023-07-22T15:05:25;36.00;27.20
42147;DHT22;27815;43.410;11.852;2023-07-22T15:09:28;36.10;27.40
42147;DHT22;27815;43.410;11.852;2023-07-22T15:13:31;36.30;27.30
42147;DHT22;27815;43.410;11.852;2023-07-22T15:17:34;36.30;27.20
42147;DHT22;27815;43.410;11.852;2023-07-22T15:21:37;36.20;27.30
42147;DHT22;27815;43.410;11.852;2023-07-22T15:25:40;36.30;27.10
42147;DHT22;27815;43.410;11.852;2023-07-22T15:29:43;36.30;27.00
42147;DHT22;27815;43.410;11.852;2023-07-22T15:33:48;36.40;27.00
42147;DHT22;27815;43.410;11.852;2023-07-22T15:37:51;36.50;26.90
42147;DHT22;27815;43.410;11.852;2023-07-22T15:41:55;36.30;26.60
42147;DHT22;27815;43.410;11.852;2023-07-22T15:45:58;36.00;26.80
42147;DHT22;27815;43.410;11.852;2023-07-22T15:50:02;36.00;26.60
42147;DHT22;27815;43.410;11.852;2023-07-22T15:54:05;35.80;27.00
42147;DHT22;27815;43.410;11.852;2023-07-22T15:58:08;35.80;27.20
42147;DHT22;27815;43.410;11.852;2023-07-22T16:02:11;36.20;27.20
42147;DHT22;27815;43.410;11.852;2023-07-22T16:06:19;37.00;26.40
42147;DHT22;27815;43.410;11.852;2023-07-22T16:10:35;37.00;26.20
42147;DHT22;27815;43.410;11.852;2023-07-22T16:14:38;37.10;26.40
42147;DHT22;27815;43.410;11.852;2023-07-22T16:18:41;37.30;26.20
42147;DHT22;27815;43.410;11.852;2023-07-22T16:22:44;37.20;26.60
42147;DHT22;27815;43.410;11.852;2023-07-22T16:26:47;37.20;26.50
42147;DHT22;27815;43.410;11.852;2023-07-22T16:30:51;37.30;26.40
42147;DHT22;27815;43.410;11.852;2023-07-22T16:34:54;37.90;26.20
42147;DHT22;27815;43.410;11.852;2023-07-22T16:38:57;38.50;25.80
42147;DHT22;27815;43.410;11.852;2023-07-22T16:43:02;38.90;25.50
42147;DHT22;27815;43.410;11.852;2023-07-22T16:47:06;38.90;25.80
42147;DHT22;27815;43.410;11.852;2023-07-22T16:51:09;39.20;25.80
42147;DHT22;27815;43.410;11.852;2023-07-22T16:55:12;39.50;25.90
42147;DHT22;27815;43.410;11.852;2023-07-22T16:59:18;39.70;26.10
42147;DHT22;27815;43.410;11.852;2023-07-22T17:03:21;39.50;26.50
42147;DHT22;27815;43.410;11.852;2023-07-22T17:07:25;39.60;26.60
42147;DHT22;27815;43.410;11.852;2023-07-22T17:11:28;39.30;26.70
42147;DHT22;27815;43.410;11.852;2023-07-22T17:15:33;39.20;26.30
42147;DHT22;27815;43.410;11.852;2023-07-22T17:19:36;39.40;26.40
42147;DHT22;27815;43.410;11.852;2023-07-22T17:23:40;39.00;26.50
42147;DHT22;27815;43.410;11.852;2023-07-22T17:27:43;39.10;26.80
42147;DHT22;27815;43.410;11.852;2023-07-22T17:31:46;39.10;27.00
42147;DHT22;27815;43.410;11.852;2023-07-22T17:35:49;39.20;27.00
42147;DHT22;27815;43.410;11.852;2023-07-22T17:39:53;39.30;27.10
42147;DHT22;27815;43.410;11.852;2023-07-22T17:43:57;39.00;27.10
42147;DHT22;27815;43.410;11.852;2023-07-22T17:48:00;37.80;28.10
42147;DHT22;27815;43.410;11.852;2023-07-22T17:52:03;36.80;28.90
42147;DHT22;27815;43.410;11.852;2023-07-22T17:56:07;35.90;29.50
42147;DHT22;27815;43.410;11.852;2023-07-22T18:00:10;35.30;30.10
42147;DHT22;27815;43.410;11.852;2023-07-22T18:04:13;35.00;30.50
42147;DHT22;27815;43.410;11.852;2023-07-22T18:08:19;34.70;30.90
42147;DHT22;27815;43.410;11.852;2023-07-22T18:12:26;34.40;31.50
42147;DHT22;27815;43.410;11.852;2023-07-22T18:16:29;34.00;32.00
42147;DHT22;27815;43.410;11.852;2023-07-22T18:20:34;33.50;32.50
42147;DHT22;27815;43.410;11.852;2023-07-22T18:24:39;33.20;33.10
42147;DHT22;27815;43.410;11.852;2023-07-22T18:28:42;32.80;33.60
42147;DHT22;27815;43.410;11.852;2023-07-22T18:32:45;32.50;34.10
42147;DHT22;27815;43.410;11.852;2023-07-22T18:36:49;32.20;34.50
42147;DHT22;27815;43.410;11.852;2023-07-22T18:40:52;31.90;35.10
42147;DHT22;27815;43.410;11.852;2023-07-22T18:44:56;31.60;35.60
42147;DHT22;27815;43.410;11.852;2023-07-22T18:48:59;31.30;36.10
42147;DHT22;27815;43.410;11.852;2023-07-22T18:53:05;31.00;36.60
42147;DHT22;27815;43.410;11.852;2023-07-22T18:57:08;30.80;36.90
42147;DHT22;27815;43.410;11.852;2023-07-22T19:01:11;30.60;37.10
42147;DHT22;27815;43.410;11.852;2023-07-22T19:05:14;30.40;37.70
42147;DHT22;27815;43.410;11.852;2023-07-22T19:09:17;30.20;38.10
42147;DHT22;27815;43.410;11.852;2023-07-22T19:13:20;30.20;38.30
42147;DHT22;27815;43.410;11.852;2023-07-22T19:17:23;30.10;38.30
42147;DHT22;27815;43.410;11.852;2023-07-22T19:21:28;30.00;38.60
42147;DHT22;27815;43.410;11.852;2023-07-22T19:25:32;29.90;38.90
42147;DHT22;27815;43.410;11.852;2023-07-22T19:29:37;29.70;39.10
42147;DHT22;27815;43.410;11.852;2023-07-22T19:33:40;29.70;39.20
42147;DHT22;27815;43.410;11.852;2023-07-22T19:37:45;29.50;39.60
42147;DHT22;27815;43.410;11.852;2023-07-22T19:41:48;29.40;39.90
42147;DHT22;27815;43.410;11.852;2023-07-22T19:46:02;29.20;40.20
42147;DHT22;27815;43.410;11.852;2023-07-22T19:50:06;29.10;40.80
42147;DHT22;27815;43.410;11.852;2023-07-22T19:54:09;28.90;41.00
42147;DHT22;27815;43.410;11.852;2023-07-22T19:58:14;28.80;41.30
42147;DHT22;27815;43.410;11.852;2023-07-22T20:02:17;28.70;41.70
42147;DHT22;27815;43.410;11.852;2023-07-22T20:06:20;28.50;41.90
42147;DHT22;27815;43.410;11.852;2023-07-22T20:10:23;28.50;42.20
42147;DHT22;27815;43.410;11.852;2023-07-22T20:14:26;28.30;42.60
42147;DHT22;27815;43.410;11.852;2023-07-22T20:18:30;28.20;42.90
42147;DHT22;27815;43.410;11.852;2023-07-22T20:22:34;28.10;43.30
42147;DHT22;27815;43.410;11.852;2023-07-22T20:26:37;28.00;43.70
42147;DHT22;27815;43.410;11.852;2023-07-22T20:30:40;28.00;44.00
42147;DHT22;27815;43.410;11.852;2023-07-22T20:34:43;27.90;44.20
42147;DHT22;27815;43.410;11.852;2023-07-22T20:38:48;27.80;44.50
42147;DHT22;27815;43.410;11.852;2023-07-22T20:42:51;27.80;44.80
42147;DHT22;27815;43.410;11.852;2023-07-22T20:46:57;27.70;45.10
42147;DHT22;27815;43.410;11.852;2023-07-22T20:51:02;27.60;45.40
42147;DHT22;27815;43.410;11.852;2023-07-22T20:55:06;27.50;45.70
42147;DHT22;27815;43.410;11.852;2023-07-22T20:59:10;27.50;46.00
42147;DHT22;27815;43.410;11.852;2023-07-22T21:03:13;27.40;46.20
42147;DHT22;27815;43.410;11.852;2023-07-22T21:07:16;27.40;46.50
42147;DHT22;27815;43.410;11.852;2023-07-22T21:11:20;27.30;46.90
42147;DHT22;27815;43.410;11.852;2023-07-22T21:15:23;27.20;47.10
42147;DHT22;27815;43.410;11.852;2023-07-22T21:19:26;27.10;47.30
42147;DHT22;27815;43.410;11.852;2023-07-22T21:23:30;27.00;47.60
42147;DHT22;27815;43.410;11.852;2023-07-22T21:27:33;27.00;47.80
42147;DHT22;27815;43.410;11.852;2023-07-22T21:31:50;27.00;47.80
42147;DHT22;27815;43.410;11.852;2023-07-22T21:35:53;26.90;48.00
42147;DHT22;27815;43.410;11.852;2023-07-22T21:39:56;26.80;48.30
42147;DHT22;27815;43.410;11.852;2023-07-22T21:44:01;26.60;48.70
42147;DHT22;27815;43.410;11.852;2023-07-22T21:48:04;26.50;49.30
42147;DHT22;27815;43.410;11.852;2023-07-22T21:52:07;26.40;49.40
42147;DHT22;27815;43.410;11.852;2023-07-22T21:56:12;26.40;49.60
42147;DHT22;27815;43.410;11.852;2023-07-22T22:00:15;26.30;49.90
42147;DHT22;27815;43.410;11.852;2023-07-22T22:04:18;26.20;50.20
42147;DHT22;27815;43.410;11.852;2023-07-22T22:08:21;26.00;50.60
42147;DHT22;27815;43.410;11.852;2023-07-22T22:12:25;26.00;50.70
42147;DHT22;27815;43.410;11.852;2023-07-22T22:16:28;26.00;51.00
42147;DHT22;27815;43.410;11.852;2023-07-22T22:20:32;26.00;51.00
42147;DHT22;27815;43.410;11.852;2023-07-22T22:24:36;26.00;51.00
42147;DHT22;27815;43.410;11.852;2023-07-22T22:28:39;26.00;51.20
42147;DHT22;27815;43.410;11.852;2023-07-22T22:32:42;25.90;51.30
42147;DHT22;27815;43.410;11.852;2023-07-22T22:36:51;25.80;51.50
42147;DHT22;27815;43.410;11.852;2023-07-22T22:40:54;25.80;51.50
42147;DHT22;27815;43.410;11.852;2023-07-22T22:44:57;25.80;51.60
42147;DHT22;27815;43.410;11.852;2023-07-22T22:49:00;25.70;51.90
42147;DHT22;27815;43.410;11.852;2023-07-22T22:53:03;25.60;52.20
42147;DHT22;27815;43.410;11.852;2023-07-22T22:57:06;25.50;52.40
42147;DHT22;27815;43.410;11.852;2023-07-22T23:01:16;25.50;52.70
42147;DHT22;27815;43.410;11.852;2023-07-22T23:05:19;25.40;53.00
42147;DHT22;27815;43.410;11.852;2023-07-22T23:09:22;25.30;53.10
42147;DHT22;27815;43.410;11.852;2023-07-22T23:13:25;25.20;53.30
42147;DHT22;27815;43.410;11.852;2023-07-22T23:17:28;25.20;53.60
42147;DHT22;27815;43.410;11.852;2023-07-22T23:21:31;25.10;53.70
42147;DHT22;27815;43.410;11.852;2023-07-22T23:25:34;25.10;53.80
42147;DHT22;27815;43.410;11.852;2023-07-22T23:29:38;25.00;54.00
42147;DHT22;27815;43.410;11.852;2023-07-22T23:33:41;25.00;54.00
42147;DHT22;27815;43.410;11.852;2023-07-22T23:37:43;25.00;54.00
42147;DHT22;27815;43.410;11.852;2023-07-22T23:41:46;24.90;54.30
42147;DHT22;27815;43.410;11.852;2023-07-22T23:45:54;24.80;54.60
42147;DHT22;27815;43.410;11.852;2023-07-22T23:49:57;24.80;54.90
42147;DHT22;27815;43.410;11.852;2023-07-22T23:54:00;24.70;55.00
42147;DHT22;27815;43.410;11.852;2023-07-22T23:58:05;24.70;55.30
